sensor_id;sensor_type;location;lat;lon;timestamp;temperature;humidity
18291;DHT22;9271;48.590;8.866;2023-03-01T00:00:44;1.30;89.30
18291;DHT22;9271;48.590;8.866;2023-03-01T00:03:12;1.20;90.00
18291;DHT22;9271;48.590;8.866;2023-03-01T00:05:43;1.20;90.10
18291;DHT22;9271;48.590;8.866;2023-03-01T00:08:10;1.30;89.70
18291;DHT22;9271;48.590;8.866;2023-03-01T00:10:37;1.40;89.30
18291;DHT22;9271;48.590;8.866;2023-03-01T00:13:05;1.40;89.20
18291;DHT22;9271;48.590;8.866;2023-03-01T00:15:32;1.30;89.70
18291;DHT22;9271;48.590;8.866;2023-03-01T00:18:00;1.30;89.70
18291;DHT22;9271;48.590;8.866;2023-03-01T00:20:26;1.20;90.00
18291;DHT22;9271;48.590;8.866;2023-03-01T00:22:53;1.10;90.50
18291;DHT22;9271;48.590;8.866;2023-03-01T00:25:20;1.10;90.20
18291;DHT22;9271;48.590;8.866;2023-03-01T00:27:46;1.20;90.00
18291;DHT22;9271;48.590;8.866;2023-03-01T00:30:16;1.10;90.30
18291;DHT22;9271;48.590;8.866;2023-03-01T00:32:42;1.10;90.40
18291;DHT22;9271;48.590;8.866;2023-03-01T00:35:09;1.10;90.30
18291;DHT22;9271;48.590;8.866;2023-03-01T00:37:36;1.10;90.40
18291;DHT22;9271;48.590;8.866;2023-03-01T00:40:03;1.10;90.40
18291;DHT22;9271;48.590;8.866;2023-03-01T00:42:31;1.10;90.40
18291;DHT22;9271;48.590;8.866;2023-03-01T00:44:58;1.20;90.30
18291;DHT22;9271;48.590;8.866;2023-03-01T00:47:28;1.20;90.10
18291;DHT22;9271;48.590;8.866;2023-03-01T00:49:55;1.20;90.00
18291;DHT22;9271;48.590;8.866;2023-03-01T00:52:21;1.00;90.40
18291;DHT22;9271;48.590;8.866;2023-03-01T00:54:48;0.90;90.60
18291;DHT22;9271;48.590;8.866;2023-03-01T00:57:15;0.80;91.10
18291;DHT22;9271;48.590;8.866;2023-03-01T00:59:41;0.70;91.20
18291;DHT22;9271;48.590;8.866;2023-03-01T01:02:08;0.80;91.30
18291;DHT22;9271;48.590;8.866;2023-03-01T01:04:36;0.80;91.40
18291;DHT22;9271;48.590;8.866;2023-03-01T01:07:03;0.80;91.50
18291;DHT22;9271;48.590;8.866;2023-03-01T01:09:31;0.80;91.40
18291;DHT22;9271;48.590;8.866;2023-03-01T01:11:58;0.80;91.50
18291;DHT22;9271;48.590;8.866;2023-03-01T01:14:24;0.70;91.70
18291;DHT22;9271;48.590;8.866;2023-03-01T01:16:51;0.70;91.80
18291;DHT22;9271;48.590;8.866;2023-03-01T01:19:18;0.70;91.80
18291;DHT22;9271;48.590;8.866;2023-03-01T01:21:46;0.80;91.60
18291;DHT22;9271;48.590;8.866;2023-03-01T01:24:13;0.80;91.70
18291;DHT22;9271;48.590;8.866;2023-03-01T01:26:41;0.70;91.80
18291;DHT22;9271;48.590;8.866;2023-03-01T01:29:07;0.80;91.70
18291;DHT22;9271;48.590;8.866;2023-03-01T01:31:35;0.90;91.60
18291;DHT22;9271;48.590;8.866;2023-03-01T01:34:04;0.90;91.60
18291;DHT22;9271;48.590;8.866;2023-03-01T01:36:32;0.80;91.70
18291;DHT22;9271;48.590;8.866;2023-03-01T01:39:00;0.70;92.00
18291;DHT22;9271;48.590;8.866;2023-03-01T01:41:29;0.70;91.90
18291;DHT22;9271;48.590;8.866;2023-03-01T01:44:12;0.60;92.20
18291;DHT22;9271;48.590;8.866;2023-03-01T01:46:41;0.70;92.20
18291;DHT22;9271;48.590;8.866;2023-03-01T01:49:17;0.60;92.50
18291;DHT22;9271;48.590;8.866;2023-03-01T01:51:45;0.60;92.50
18291;DHT22;9271;48.590;8.866;2023-03-01T01:54:18;0.60;92.50
18291;DHT22;9271;48.590;8.866;2023-03-01T01:56:50;0.60;92.70
18291;DHT22;9271;48.590;8.866;2023-03-01T01:59:19;0.60;92.60
18291;DHT22;9271;48.590;8.866;2023-03-01T02:01:50;0.40;93.00
18291;DHT22;9271;48.590;8.866;2023-03-01T02:04:16;0.40;92.70
18291;DHT22;9271;48.590;8.866;2023-03-01T02:06:48;0.40;93.00
18291;DHT22;9271;48.590;8.866;2023-03-01T02:09:19;0.50;92.90
18291;DHT22;9271;48.590;8.866;2023-03-01T02:11:47;0.40;93.10
18291;DHT22;9271;48.590;8.866;2023-03-01T02:14:14;0.30;93.10
18291;DHT22;9271;48.590;8.866;2023-03-01T02:16:41;0.30;93.40
18291;DHT22;9271;48.590;8.866;2023-03-01T02:19:09;0.30;93.40
18291;DHT22;9271;48.590;8.866;2023-03-01T02:21:46;0.30;93.40
18291;DHT22;9271;48.590;8.866;2023-03-01T02:24:26;0.40;93.40
18291;DHT22;9271;48.590;8.866;2023-03-01T02:26:56;0.40;93.50
18291;DHT22;9271;48.590;8.866;2023-03-01T02:29:27;0.50;93.50
18291;DHT22;9271;48.590;8.866;2023-03-01T02:31:57;0.50;93.20
18291;DHT22;9271;48.590;8.866;2023-03-01T02:34:25;0.70;93.20
18291;DHT22;9271;48.590;8.866;2023-03-01T02:36:54;0.90;92.70
18291;DHT22;9271;48.590;8.866;2023-03-01T02:39:26;0.90;92.60
18291;DHT22;9271;48.590;8.866;2023-03-01T02:41:54;1.00;92.20
18291;DHT22;9271;48.590;8.866;2023-03-01T02:44:22;1.00;92.30
18291;DHT22;9271;48.590;8.866;2023-03-01T02:46:52;1.00;92.20
18291;DHT22;9271;48.590;8.866;2023-03-01T02:49:23;1.00;92.40
18291;DHT22;9271;48.590;8.866;2023-03-01T02:52:01;1.10;92.90
18291;DHT22;9271;48.590;8.866;2023-03-01T02:54:36;1.10;92.30
18291;DHT22;9271;48.590;8.866;2023-03-01T02:57:06;1.00;92.30
18291;DHT22;9271;48.590;8.866;2023-03-01T02:59:35;1.20;92.20
18291;DHT22;9271;48.590;8.866;2023-03-01T03:02:06;1.30;91.90
18291;DHT22;9271;48.590;8.866;2023-03-01T03:04:32;1.30;92.00
18291;DHT22;9271;48.590;8.866;2023-03-01T03:06:59;1.20;92.10
18291;DHT22;9271;48.590;8.866;2023-03-01T03:09:26;1.30;92.00
18291;DHT22;9271;48.590;8.866;2023-03-01T03:11:53;1.30;92.00
18291;DHT22;9271;48.590;8.866;2023-03-01T03:14:20;1.20;92.10
18291;DHT22;9271;48.590;8.866;2023-03-01T03:16:49;1.20;92.30
18291;DHT22;9271;48.590;8.866;2023-03-01T03:19:18;1.20;92.20
18291;DHT22;9271;48.590;8.866;2023-03-01T03:21:45;1.30;92.20
18291;DHT22;9271;48.590;8.866;2023-03-01T03:24:11;1.20;92.30
18291;DHT22;9271;48.590;8.866;2023-03-01T03:26:38;1.20;92.20
18291;DHT22;9271;48.590;8.866;2023-03-01T03:29:05;1.10;92.60
18291;DHT22;9271;48.590;8.866;2023-03-01T03:31:31;1.10;92.60
18291;DHT22;9271;48.590;8.866;2023-03-01T03:33:58;1.20;92.40
18291;DHT22;9271;48.590;8.866;2023-03-01T03:36:26;1.20;92.50
18291;DHT22;9271;48.590;8.866;2023-03-01T03:38:53;1.40;92.40
18291;DHT22;9271;48.590;8.866;2023-03-01T03:41:20;1.40;92.10
18291;DHT22;9271;48.590;8.866;2023-03-01T03:43:46;1.50;91.90
18291;DHT22;9271;48.590;8.866;2023-03-01T03:46:14;1.50;91.80
18291;DHT22;9271;48.590;8.866;2023-03-01T03:48:42;1.40;91.80
18291;DHT22;9271;48.590;8.866;2023-03-01T03:51:10;1.50;92.00
18291;DHT22;9271;48.590;8.866;2023-03-01T03:53:38;1.50;92.10
18291;DHT22;9271;48.590;8.866;2023-03-01T03:56:06;1.50;91.90
18291;DHT22;9271;48.590;8.866;2023-03-01T03:58:33;1.50;92.00
18291;DHT22;9271;48.590;8.866;2023-03-01T04:01:00;1.60;91.90
18291;DHT22;9271;48.590;8.866;2023-03-01T04:03:28;1.50;91.90
18291;DHT22;9271;48.590;8.866;2023-03-01T04:05:57;1.40;92.20
18291;DHT22;9271;48.590;8.866;2023-03-01T04:08:24;1.60;92.20
18291;DHT22;9271;48.590;8.866;2023-03-01T04:10:57;1.70;92.10
18291;DHT22;9271;48.590;8.866;2023-03-01T04:13:24;1.60;91.80
18291;DHT22;9271;48.590;8.866;2023-03-01T04:15:52;1.60;92.10
18291;DHT22;9271;48.590;8.866;2023-03-01T04:18:20;1.60;92.30
18291;DHT22;9271;48.590;8.866;2023-03-01T04:20:48;1.70;92.10
18291;DHT22;9271;48.590;8.866;2023-03-01T04:23:18;1.50;92.40
18291;DHT22;9271;48.590;8.866;2023-03-01T04:25:47;1.60;92.70
18291;DHT22;9271;48.590;8.866;2023-03-01T04:28:21;1.70;92.40
18291;DHT22;9271;48.590;8.866;2023-03-01T04:30:50;1.80;92.20
18291;DHT22;9271;48.590;8.866;2023-03-01T04:33:17;1.70;92.00
18291;DHT22;9271;48.590;8.866;2023-03-01T04:35:44;1.70;92.30
18291;DHT22;9271;48.590;8.866;2023-03-01T04:38:10;1.70;92.20
18291;DHT22;9271;48.590;8.866;2023-03-01T04:40:37;1.70;92.10
18291;DHT22;9271;48.590;8.866;2023-03-01T04:43:04;1.70;92.70
18291;DHT22;9271;48.590;8.866;2023-03-01T04:45:33;1.70;92.50
18291;DHT22;9271;48.590;8.866;2023-03-01T04:48:00;1.80;92.10
18291;DHT22;9271;48.590;8.866;2023-03-01T04:50:27;1.80;92.20
18291;DHT22;9271;48.590;8.866;2023-03-01T04:52:54;1.90;92.10
18291;DHT22;9271;48.590;8.866;2023-03-01T04:55:24;2.00;92.10
18291;DHT22;9271;48.590;8.866;2023-03-01T04:57:51;2.00;92.00
18291;DHT22;9271;48.590;8.866;2023-03-01T05:00:18;1.90;92.10
18291;DHT22;9271;48.590;8.866;2023-03-01T05:02:50;1.80;92.30
18291;DHT22;9271;48.590;8.866;2023-03-01T05:05:19;1.90;92.20
18291;DHT22;9271;48.590;8.866;2023-03-01T05:07:46;1.90;92.40
18291;DHT22;9271;48.590;8.866;2023-03-01T05:10:13;1.90;92.40
18291;DHT22;9271;48.590;8.866;2023-03-01T05:12:40;1.90;92.60
18291;DHT22;9271;48.590;8.866;2023-03-01T05:15:07;2.00;92.40
18291;DHT22;9271;48.590;8.866;2023-03-01T05:17:34;2.20;92.10
18291;DHT22;9271;48.590;8.866;2023-03-01T05:20:02;2.20;91.80
18291;DHT22;9271;48.590;8.866;2023-03-01T05:22:33;2.30;92.00
18291;DHT22;9271;48.590;8.866;2023-03-01T05:24:59;2.30;91.70
18291;DHT22;9271;48.590;8.866;2023-03-01T05:27:26;2.20;91.80
18291;DHT22;9271;48.590;8.866;2023-03-01T05:29:54;2.30;91.80
18291;DHT22;9271;48.590;8.866;2023-03-01T05:32:21;2.20;91.70
18291;DHT22;9271;48.590;8.866;2023-03-01T05:34:48;2.10;92.00
18291;DHT22;9271;48.590;8.866;2023-03-01T05:37:16;2.20;91.80
18291;DHT22;9271;48.590;8.866;2023-03-01T05:39:43;2.20;91.80
18291;DHT22;9271;48.590;8.866;2023-03-01T05:42:10;2.20;91.80
18291;DHT22;9271;48.590;8.866;2023-03-01T05:44:38;2.20;91.90
18291;DHT22;9271;48.590;8.866;2023-03-01T05:47:04;2.20;91.70
18291;DHT22;9271;48.590;8.866;2023-03-01T05:49:31;2.20;91.80
18291;DHT22;9271;48.590;8.866;2023-03-01T05:51:58;2.30;91.90
18291;DHT22;9271;48.590;8.866;2023-03-01T05:54:26;2.20;91.60
18291;DHT22;9271;48.590;8.866;2023-03-01T05:56:53;2.30;91.70
18291;DHT22;9271;48.590;8.866;2023-03-01T05:59:19;2.30;91.70
18291;DHT22;9271;48.590;8.866;2023-03-01T06:01:46;2.40;91.50
18291;DHT22;9271;48.590;8.866;2023-03-01T06:04:13;2.50;91.30
18291;DHT22;9271;48.590;8.866;2023-03-01T06:06:39;2.60;91.20
18291;DHT22;9271;48.590;8.866;2023-03-01T06:09:07;2.60;91.20
18291;DHT22;9271;48.590;8.866;2023-03-01T06:11:36;2.60;91.40
18291;DHT22;9271;48.590;8.866;2023-03-01T06:14:03;2.70;91.40
18291;DHT22;9271;48.590;8.866;2023-03-01T06:16:31;2.70;91.50
18291;DHT22;9271;48.590;8.866;2023-03-01T06:18:58;2.60;91.40
18291;DHT22;9271;48.590;8.866;2023-03-01T06:21:25;2.60;91.30
18291;DHT22;9271;48.590;8.866;2023-03-01T06:23:51;2.60;91.30
18291;DHT22;9271;48.590;8.866;2023-03-01T06:26:18;2.70;91.20
18291;DHT22;9271;48.590;8.866;2023-03-01T06:28:46;2.70;91.30
18291;DHT22;9271;48.590;8.866;2023-03-01T06:31:13;2.60;91.30
18291;DHT22;9271;48.590;8.866;2023-03-01T06:33:39;2.70;91.40
18291;DHT22;9271;48.590;8.866;2023-03-01T06:36:07;2.60;91.30
18291;DHT22;9271;48.590;8.866;2023-03-01T06:38:35;2.60;91.40
18291;DHT22;9271;48.590;8.866;2023-03-01T06:41:02;2.70;91.20
18291;DHT22;9271;48.590;8.866;2023-03-01T06:43:28;2.80;91.00
18291;DHT22;9271;48.590;8.866;2023-03-01T06:45:56;2.90;90.80
18291;DHT22;9271;48.590;8.866;2023-03-01T06:48:23;3.00;90.60
18291;DHT22;9271;48.590;8.866;2023-03-01T06:50:50;3.00;90.60
18291;DHT22;9271;48.590;8.866;2023-03-01T06:53:16;3.00;90.70
18291;DHT22;9271;48.590;8.866;2023-03-01T06:55:43;3.10;90.90
18291;DHT22;9271;48.590;8.866;2023-03-01T06:58:10;3.40;90.30
18291;DHT22;9271;48.590;8.866;2023-03-01T07:00:37;3.80;89.60
18291;DHT22;9271;48.590;8.866;2023-03-01T07:03:08;4.00;88.50
18291;DHT22;9271;48.590;8.866;2023-03-01T07:05:35;4.10;88.30
18291;DHT22;9271;48.590;8.866;2023-03-01T07:08:01;4.40;87.60
18291;DHT22;9271;48.590;8.866;2023-03-01T07:10:28;5.20;85.60
18291;DHT22;9271;48.590;8.866;2023-03-01T07:12:55;6.00;82.70
18291;DHT22;9271;48.590;8.866;2023-03-01T07:15:22;6.80;79.60
18291;DHT22;9271;48.590;8.866;2023-03-01T07:17:49;7.40;76.60
18291;DHT22;9271;48.590;8.866;2023-03-01T07:20:18;7.40;74.70
18291;DHT22;9271;48.590;8.866;2023-03-01T07:22:46;7.80;74.40
18291;DHT22;9271;48.590;8.866;2023-03-01T07:25:13;8.70;71.70
18291;DHT22;9271;48.590;8.866;2023-03-01T07:27:40;9.30;68.80
18291;DHT22;9271;48.590;8.866;2023-03-01T07:30:08;9.40;67.30
18291;DHT22;9271;48.590;8.866;2023-03-01T07:32:34;10.20;63.30
18291;DHT22;9271;48.590;8.866;2023-03-01T07:35:01;10.60;60.60
18291;DHT22;9271;48.590;8.866;2023-03-01T07:37:29;11.10;59.70
18291;DHT22;9271;48.590;8.866;2023-03-01T07:39:56;12.00;57.50
18291;DHT22;9271;48.590;8.866;2023-03-01T07:42:23;13.00;55.40
18291;DHT22;9271;48.590;8.866;2023-03-01T07:44:49;13.40;52.50
18291;DHT22;9271;48.590;8.866;2023-03-01T07:47:16;13.30;51.30
18291;DHT22;9271;48.590;8.866;2023-03-01T07:49:42;13.10;51.70
18291;DHT22;9271;48.590;8.866;2023-03-01T07:52:10;13.50;50.00
18291;DHT22;9271;48.590;8.866;2023-03-01T07:54:38;13.10;49.40
18291;DHT22;9271;48.590;8.866;2023-03-01T07:57:05;13.30;50.40
18291;DHT22;9271;48.590;8.866;2023-03-01T07:59:32;13.80;49.00
18291;DHT22;9271;48.590;8.866;2023-03-01T08:01:58;14.30;48.50
18291;DHT22;9271;48.590;8.866;2023-03-01T08:04:25;14.60;46.30
18291;DHT22;9271;48.590;8.866;2023-03-01T08:06:52;15.30;45.90
18291;DHT22;9271;48.590;8.866;2023-03-01T08:09:18;16.10;44.00
18291;DHT22;9271;48.590;8.866;2023-03-01T08:11:46;16.60;42.80
18291;DHT22;9271;48.590;8.866;2023-03-01T08:14:13;17.20;41.30
18291;DHT22;9271;48.590;8.866;2023-03-01T08:16:40;17.20;41.40
18291;DHT22;9271;48.590;8.866;2023-03-01T08:19:07;17.50;39.90
18291;DHT22;9271;48.590;8.866;2023-03-01T08:21:34;18.00;38.60
18291;DHT22;9271;48.590;8.866;2023-03-01T08:24:01;18.00;37.50
18291;DHT22;9271;48.590;8.866;2023-03-01T08:26:28;18.80;37.80
18291;DHT22;9271;48.590;8.866;2023-03-01T08:28:56;18.50;36.70
18291;DHT22;9271;48.590;8.866;2023-03-01T08:31:25;18.80;36.80
18291;DHT22;9271;48.590;8.866;2023-03-01T08:33:54;19.10;35.50
18291;DHT22;9271;48.590;8.866;2023-03-01T08:36:22;19.60;35.30
18291;DHT22;9271;48.590;8.866;2023-03-01T08:38:49;19.80;35.00
18291;DHT22;9271;48.590;8.866;2023-03-01T08:41:16;20.50;33.40
18291;DHT22;9271;48.590;8.866;2023-03-01T08:43:42;20.50;33.00
18291;DHT22;9271;48.590;8.866;2023-03-01T08:46:11;20.30;32.80
18291;DHT22;9271;48.590;8.866;2023-03-01T08:48:38;20.80;31.80
18291;DHT22;9271;48.590;8.866;2023-03-01T08:51:10;21.30;31.20
18291;DHT22;9271;48.590;8.866;2023-03-01T08:53:38;21.60;30.20
18291;DHT22;9271;48.590;8.866;2023-03-01T08:56:05;21.90;30.70
18291;DHT22;9271;48.590;8.866;2023-03-01T08:58:32;22.50;29.80
18291;DHT22;9271;48.590;8.866;2023-03-01T09:00:58;21.70;28.90
18291;DHT22;9271;48.590;8.866;2023-03-01T09:03:27;18.00;30.90
18291;DHT22;9271;48.590;8.866;2023-03-01T09:06:00;15.70;34.20
18291;DHT22;9271;48.590;8.866;2023-03-01T09:08:27;14.80;35.60
18291;DHT22;9271;48.590;8.866;2023-03-01T09:10:53;13.90;37.90
18291;DHT22;9271;48.590;8.866;2023-03-01T09:13:20;13.80;38.40
18291;DHT22;9271;48.590;8.866;2023-03-01T09:15:49;14.50;37.80
18291;DHT22;9271;48.590;8.866;2023-03-01T09:18:15;15.90;36.90
18291;DHT22;9271;48.590;8.866;2023-03-01T09:20:43;17.80;35.20
18291;DHT22;9271;48.590;8.866;2023-03-01T09:23:10;19.30;32.00
18291;DHT22;9271;48.590;8.866;2023-03-01T09:25:37;20.60;30.40
18291;DHT22;9271;48.590;8.866;2023-03-01T09:28:03;20.50;29.20
18291;DHT22;9271;48.590;8.866;2023-03-01T09:30:30;19.20;30.50
18291;DHT22;9271;48.590;8.866;2023-03-01T09:32:57;18.30;32.30
18291;DHT22;9271;48.590;8.866;2023-03-01T09:35:24;16.40;34.10
18291;DHT22;9271;48.590;8.866;2023-03-01T09:37:52;16.60;34.20
18291;DHT22;9271;48.590;8.866;2023-03-01T09:40:21;16.60;34.60
18291;DHT22;9271;48.590;8.866;2023-03-01T09:42:53;16.70;33.80
18291;DHT22;9271;48.590;8.866;2023-03-01T09:45:34;16.30;35.30
18291;DHT22;9271;48.590;8.866;2023-03-01T09:48:02;18.00;32.90
18291;DHT22;9271;48.590;8.866;2023-03-01T09:50:33;17.80;33.40
18291;DHT22;9271;48.590;8.866;2023-03-01T09:53:04;18.00;33.70
18291;DHT22;9271;48.590;8.866;2023-03-01T09:55:37;19.40;32.40
18291;DHT22;9271;48.590;8.866;2023-03-01T09:58:22;19.00;32.10
18291;DHT22;9271;48.590;8.866;2023-03-01T10:00:52;19.30;32.00
18291;DHT22;9271;48.590;8.866;2023-03-01T10:03:25;20.90;30.60
18291;DHT22;9271;48.590;8.866;2023-03-01T10:05:57;21.60;29.10
18291;DHT22;9271;48.590;8.866;2023-03-01T10:08:35;22.80;28.60
18291;DHT22;9271;48.590;8.866;2023-03-01T10:11:05;23.50;27.80
18291;DHT22;9271;48.590;8.866;2023-03-01T10:13:37;22.80;27.70
18291;DHT22;9271;48.590;8.866;2023-03-01T10:16:13;23.70;27.30
18291;DHT22;9271;48.590;8.866;2023-03-01T10:18:44;23.20;26.10
18291;DHT22;9271;48.590;8.866;2023-03-01T10:21:14;23.10;27.30
18291;DHT22;9271;48.590;8.866;2023-03-01T10:23:44;22.00;27.60
18291;DHT22;9271;48.590;8.866;2023-03-01T10:26:28;22.30;28.40
18291;DHT22;9271;48.590;8.866;2023-03-01T10:29:02;23.20;27.10
18291;DHT22;9271;48.590;8.866;2023-03-01T10:31:36;23.90;26.40
18291;DHT22;9271;48.590;8.866;2023-03-01T10:34:10;24.20;25.80
18291;DHT22;9271;48.590;8.866;2023-03-01T10:36:38;23.70;26.20
18291;DHT22;9271;48.590;8.866;2023-03-01T10:39:12;22.40;26.50
18291;DHT22;9271;48.590;8.866;2023-03-01T10:41:52;22.80;27.20
18291;DHT22;9271;48.590;8.866;2023-03-01T10:44:36;24.00;26.00
18291;DHT22;9271;48.590;8.866;2023-03-01T10:47:03;25.40;25.20
18291;DHT22;9271;48.590;8.866;2023-03-01T10:49:30;26.20;24.40
18291;DHT22;9271;48.590;8.866;2023-03-01T10:52:15;26.80;23.00
18291;DHT22;9271;48.590;8.866;2023-03-01T10:54:52;26.30;23.40
18291;DHT22;9271;48.590;8.866;2023-03-01T10:57:34;26.50;23.60
18291;DHT22;9271;48.590;8.866;2023-03-01T11:00:16;26.80;23.20
18291;DHT22;9271;48.590;8.866;2023-03-01T11:02:47;26.70;23.10
18291;DHT22;9271;48.590;8.866;2023-03-01T11:05:19;25.40;24.00
18291;DHT22;9271;48.590;8.866;2023-03-01T11:07:47;24.50;24.10
18291;DHT22;9271;48.590;8.866;2023-03-01T11:10:18;25.00;24.00
18291;DHT22;9271;48.590;8.866;2023-03-01T11:12:45;24.80;24.30
18291;DHT22;9271;48.590;8.866;2023-03-01T11:15:21;24.70;24.10
18291;DHT22;9271;48.590;8.866;2023-03-01T11:17:49;24.70;24.40
18291;DHT22;9271;48.590;8.866;2023-03-01T11:20:27;24.40;24.60
18291;DHT22;9271;48.590;8.866;2023-03-01T11:22:58;24.00;24.70
18291;DHT22;9271;48.590;8.866;2023-03-01T11:25:30;22.00;25.90
18291;DHT22;9271;48.590;8.866;2023-03-01T11:28:00;22.90;25.90
18291;DHT22;9271;48.590;8.866;2023-03-01T11:30:30;24.00;25.40
18291;DHT22;9271;48.590;8.866;2023-03-01T11:33:10;25.00;24.00
18291;DHT22;9271;48.590;8.866;2023-03-01T11:35:44;23.90;24.60
18291;DHT22;9271;48.590;8.866;2023-03-01T11:38:18;23.30;25.00
18291;DHT22;9271;48.590;8.866;2023-03-01T11:40:52;23.10;25.60
18291;DHT22;9271;48.590;8.866;2023-03-01T11:43:23;24.60;24.80
18291;DHT22;9271;48.590;8.866;2023-03-01T11:46:14;25.20;24.10
18291;DHT22;9271;48.590;8.866;2023-03-01T11:48:55;24.20;24.50
18291;DHT22;9271;48.590;8.866;2023-03-01T11:51:38;24.30;24.50
18291;DHT22;9271;48.590;8.866;2023-03-01T11:54:21;23.60;24.80
18291;DHT22;9271;48.590;8.866;2023-03-01T11:57:00;24.70;24.80
18291;DHT22;9271;48.590;8.866;2023-03-01T11:59:47;25.60;24.00
18291;DHT22;9271;48.590;8.866;2023-03-01T12:02:36;25.90;23.20
18291;DHT22;9271;48.590;8.866;2023-03-01T12:05:24;25.10;23.40
18291;DHT22;9271;48.590;8.866;2023-03-01T12:07:58;25.20;24.00
18291;DHT22;9271;48.590;8.866;2023-03-01T12:10:29;26.00;23.50
18291;DHT22;9271;48.590;8.866;2023-03-01T12:13:21;24.00;24.20
18291;DHT22;9271;48.590;8.866;2023-03-01T12:16:04;24.10;24.50
18291;DHT22;9271;48.590;8.866;2023-03-01T12:19:07;23.70;24.60
18291;DHT22;9271;48.590;8.866;2023-03-01T12:24:49;24.70;24.30
18291;DHT22;9271;48.590;8.866;2023-03-01T12:27:31;25.50;23.90
18291;DHT22;9271;48.590;8.866;2023-03-01T12:30:10;25.50;23.50
18291;DHT22;9271;48.590;8.866;2023-03-01T12:32:49;25.30;23.60
18291;DHT22;9271;48.590;8.866;2023-03-01T12:35:42;25.00;23.50
18291;DHT22;9271;48.590;8.866;2023-03-01T12:38:25;24.30;24.40
18291;DHT22;9271;48.590;8.866;2023-03-01T12:44:01;26.10;23.30
18291;DHT22;9271;48.590;8.866;2023-03-01T12:46:46;25.60;23.30
18291;DHT22;9271;48.590;8.866;2023-03-01T12:49:21;26.00;23.50
18291;DHT22;9271;48.590;8.866;2023-03-01T12:51:54;26.10;23.20
18291;DHT22;9271;48.590;8.866;2023-03-01T12:54:27;25.00;23.00
18291;DHT22;9271;48.590;8.866;2023-03-01T12:56:55;24.50;24.00
18291;DHT22;9271;48.590;8.866;2023-03-01T12:59:28;24.60;23.70
18291;DHT22;9271;48.590;8.866;2023-03-01T13:02:05;24.30;24.30
18291;DHT22;9271;48.590;8.866;2023-03-01T13:04:52;24.30;23.60
18291;DHT22;9271;48.590;8.866;2023-03-01T13:07:27;24.90;24.20
18291;DHT22;9271;48.590;8.866;2023-03-01T13:10:02;26.00;23.50
18291;DHT22;9271;48.590;8.866;2023-03-01T13:12:47;25.50;23.20
18291;DHT22;9271;48.590;8.866;2023-03-01T13:15:31;26.00;23.40
18291;DHT22;9271;48.590;8.866;2023-03-01T13:18:00;25.80;22.90
18291;DHT22;9271;48.590;8.866;2023-03-01T13:20:31;25.80;23.10
18291;DHT22;9271;48.590;8.866;2023-03-01T13:23:08;26.10;22.50
18291;DHT22;9271;48.590;8.866;2023-03-01T13:26:02;26.30;22.50
18291;DHT22;9271;48.590;8.866;2023-03-01T13:31:57;25.20;23.30
18291;DHT22;9271;48.590;8.866;2023-03-01T13:34:48;25.00;23.30
18291;DHT22;9271;48.590;8.866;2023-03-01T13:37:27;24.70;23.40
18291;DHT22;9271;48.590;8.866;2023-03-01T13:39:56;25.40;23.50
18291;DHT22;9271;48.590;8.866;2023-03-01T13:42:46;26.30;23.10
18291;DHT22;9271;48.590;8.866;2023-03-01T13:45:17;25.40;22.70
18291;DHT22;9271;48.590;8.866;2023-03-01T13:47:46;24.30;23.70
18291;DHT22;9271;48.590;8.866;2023-03-01T13:50:20;24.10;24.30
18291;DHT22;9271;48.590;8.866;2023-03-01T13:52:52;23.60;24.50
18291;DHT22;9271;48.590;8.866;2023-03-01T13:55:23;24.00;24.30
18291;DHT22;9271;48.590;8.866;2023-03-01T13:57:55;24.60;24.30
18291;DHT22;9271;48.590;8.866;2023-03-01T14:00:29;24.70;23.70
18291;DHT22;9271;48.590;8.866;2023-03-01T14:03:10;24.40;24.20
18291;DHT22;9271;48.590;8.866;2023-03-01T14:05:39;24.90;24.10
18291;DHT22;9271;48.590;8.866;2023-03-01T14:08:19;24.20;23.50
18291;DHT22;9271;48.590;8.866;2023-03-01T14:11:01;22.20;25.00
18291;DHT22;9271;48.590;8.866;2023-03-01T14:13:47;21.40;26.50
18291;DHT22;9271;48.590;8.866;2023-03-01T14:16:23;21.40;26.70
18291;DHT22;9271;48.590;8.866;2023-03-01T14:19:00;22.10;26.10
18291;DHT22;9271;48.590;8.866;2023-03-01T14:21:29;22.10;25.80
18291;DHT22;9271;48.590;8.866;2023-03-01T14:23:57;20.90;26.40
18291;DHT22;9271;48.590;8.866;2023-03-01T14:26:24;19.50;27.50
18291;DHT22;9271;48.590;8.866;2023-03-01T14:28:52;19.30;27.90
18291;DHT22;9271;48.590;8.866;2023-03-01T14:31:36;19.30;27.90
18291;DHT22;9271;48.590;8.866;2023-03-01T14:34:03;20.00;28.10
18291;DHT22;9271;48.590;8.866;2023-03-01T14:36:31;21.00;27.00
18291;DHT22;9271;48.590;8.866;2023-03-01T14:38:58;21.70;26.90
18291;DHT22;9271;48.590;8.866;2023-03-01T14:41:32;22.50;26.00
18291;DHT22;9271;48.590;8.866;2023-03-01T14:44:05;22.50;26.20
18291;DHT22;9271;48.590;8.866;2023-03-01T14:46:34;22.00;25.90
18291;DHT22;9271;48.590;8.866;2023-03-01T14:49:04;21.70;26.50
18291;DHT22;9271;48.590;8.866;2023-03-01T14:51:36;21.50;26.90
18291;DHT22;9271;48.590;8.866;2023-03-01T14:54:04;21.40;27.10
18291;DHT22;9271;48.590;8.866;2023-03-01T14:56:43;20.70;27.60
18291;DHT22;9271;48.590;8.866;2023-03-01T14:59:12;20.20;28.20
18291;DHT22;9271;48.590;8.866;2023-03-01T15:01:40;20.20;28.00
18291;DHT22;9271;48.590;8.866;2023-03-01T15:04:11;19.80;28.40
18291;DHT22;9271;48.590;8.866;2023-03-01T15:06:39;19.80;29.00
18291;DHT22;9271;48.590;8.866;2023-03-01T15:09:06;19.20;29.10
18291;DHT22;9271;48.590;8.866;2023-03-01T15:11:34;18.40;29.70
18291;DHT22;9271;48.590;8.866;2023-03-01T15:14:27;18.40;30.00
18291;DHT22;9271;48.590;8.866;2023-03-01T15:16:54;18.60;30.40
18291;DHT22;9271;48.590;8.866;2023-03-01T15:19:24;18.50;30.20
18291;DHT22;9271;48.590;8.866;2023-03-01T15:21:54;18.30;30.30
18291;DHT22;9271;48.590;8.866;2023-03-01T15:24:24;17.70;30.00
18291;DHT22;9271;48.590;8.866;2023-03-01T15:26:53;17.30;30.80
18291;DHT22;9271;48.590;8.866;2023-03-01T15:29:24;16.90;32.10
18291;DHT22;9271;48.590;8.866;2023-03-01T15:31:58;16.70;32.10
18291;DHT22;9271;48.590;8.866;2023-03-01T15:34:27;16.70;32.00
18291;DHT22;9271;48.590;8.866;2023-03-01T15:36:57;17.10;31.70
18291;DHT22;9271;48.590;8.866;2023-03-01T15:39:36;17.30;31.30
18291;DHT22;9271;48.590;8.866;2023-03-01T15:42:11;16.50;31.70
18291;DHT22;9271;48.590;8.866;2023-03-01T15:44:40;15.80;32.70
18291;DHT22;9271;48.590;8.866;2023-03-01T15:47:26;15.50;34.20
18291;DHT22;9271;48.590;8.866;2023-03-01T15:49:53;15.70;34.20
18291;DHT22;9271;48.590;8.866;2023-03-01T15:52:23;15.10;34.50
18291;DHT22;9271;48.590;8.866;2023-03-01T15:54:55;14.80;35.00
18291;DHT22;9271;48.590;8.866;2023-03-01T15:57:21;14.70;35.40
18291;DHT22;9271;48.590;8.866;2023-03-01T15:59:48;14.30;36.30
18291;DHT22;9271;48.590;8.866;2023-03-01T16:02:15;13.70;37.00
18291;DHT22;9271;48.590;8.866;2023-03-01T16:04:43;13.00;38.10
18291;DHT22;9271;48.590;8.866;2023-03-01T16:07:09;12.70;38.70
18291;DHT22;9271;48.590;8.866;2023-03-01T16:09:36;12.80;39.20
18291;DHT22;9271;48.590;8.866;2023-03-01T16:12:03;12.90;39.10
18291;DHT22;9271;48.590;8.866;2023-03-01T16:14:30;12.60;39.40
18291;DHT22;9271;48.590;8.866;2023-03-01T16:16:57;12.60;39.80
18291;DHT22;9271;48.590;8.866;2023-03-01T16:19:24;12.50;39.80
18291;DHT22;9271;48.590;8.866;2023-03-01T16:21:52;11.80;40.90